Terminal Aerodrome Forecast
Issued by NWS Nashville, TN

Home | Current Version | Previous Version | Text Only | Print | Product List | Glossary On
Versions: 1 2 3 4 5 6 7 8
000
FTUS44 KOHX 261100
TAFBNA
TAF
KBNA 261126Z 2612/2712 12004KT P6SM SCT250
     FM261400 19008KT P6SM SCT250
     FM270000 17005KT P6SM BKN120=

USA.gov is the U.S. government's official web portal to all federal, state and local government web resources and services.